Time;durP1;ratioP1;P1;durP2;ratioP2;P2;SDS_P1;SDS_P2;PMS_P1;PMS_P2;Temp;Humidity;BMP_temperature;BMP_pressure;BME280_temperature;BME280_humidity;BME280_pressure;Samples;Min_cycle;Max_cycle;Signal;HPM_P1;HPM_P2
2022/03/06 00:01:14;;;;;;;0.20;0.20;;;;;;;23.03;11.90;100333.22;5053843;28;20029;-73
2022/03/06 00:03:40;;;;;;;0.20;0.20;;;;;;;23.01;11.92;100330.78;5053546;28;20025;-75
2022/03/06 00:06:05;;;;;;;0.50;0.40;;;;;;;23.00;12.06;100334.56;5053813;28;20028;-75
2022/03/06 00:08:31;;;;;;;0.30;0.30;;;;;;;23.00;11.88;100329.13;5053716;28;20102;-74
2022/03/06 00:10:57;;;;;;;0.20;0.20;;;;;;;23.01;12.14;100325.31;5053681;28;20113;-75
2022/03/06 00:13:22;;;;;;;0.20;0.20;;;;;;;22.98;12.12;100314.16;5053539;28;20382;-74
2022/03/06 00:15:48;;;;;;;0.30;0.30;;;;;;;23.01;12.05;100330.78;5035997;28;20382;-75
2022/03/06 00:18:13;;;;;;;0.20;0.20;;;;;;;22.99;12.12;100316.59;5053336;28;20467;-75
2022/03/06 00:20:41;;;;;;;0.20;0.20;;;;;;;23.03;12.00;100322.31;5053333;28;20028;-75
2022/03/06 00:23:06;;;;;;;0.28;0.28;;;;;;;23.02;12.17;100324.22;5053261;28;20051;-75
2022/03/06 00:25:31;;;;;;;0.30;0.30;;;;;;;22.94;12.18;100308.44;5053650;28;20021;-75
2022/03/06 00:27:57;;;;;;;0.20;0.20;;;;;;;23.01;12.26;100325.31;5052941;28;20533;-74
2022/03/06 00:30:22;;;;;;;0.40;0.30;;;;;;;23.01;12.00;100322.59;5053563;28;20028;-74
2022/03/06 00:32:48;;;;;;;0.25;0.20;;;;;;;23.02;11.99;100320.69;5053095;28;20021;-75
2022/03/06 00:35:13;;;;;;;0.20;0.20;;;;;;;23.01;12.11;100317.16;5053011;28;20091;-75
2022/03/06 00:37:38;;;;;;;0.20;0.20;;;;;;;22.96;12.15;100311.69;5053034;28;20044;-75
2022/03/06 00:40:04;;;;;;;0.17;0.17;;;;;;;23.02;12.20;100313.31;5035286;28;20041;-74
2022/03/06 00:42:30;;;;;;;0.30;0.30;;;;;;;23.03;12.30;100309.50;5053440;28;20032;-74
2022/03/06 00:44:55;;;;;;;0.25;0.25;;;;;;;23.01;12.02;100303.53;5055036;28;20021;-74
2022/03/06 00:47:21;;;;;;;0.20;0.20;;;;;;;23.03;12.19;100303.25;5057030;28;20021;-74
2022/03/06 00:49:46;;;;;;;0.28;0.28;;;;;;;23.06;12.16;100308.19;5057380;28;20024;-73
2022/03/06 00:52:12;;;;;;;0.30;0.30;;;;;;;23.03;12.19;100306.78;5057365;28;20021;-74
2022/03/06 00:54:37;;;;;;;0.20;0.20;;;;;;;23.03;11.99;100305.97;5057287;28;20455;-74
2022/03/06 00:57:03;;;;;;;0.45;0.20;;;;;;;23.00;12.08;100307.31;5056989;28;20032;-75
2022/03/06 00:59:33;;;;;;;0.20;0.20;;;;;;;23.03;12.04;100311.44;5058036;28;20033;-75
2022/03/06 01:01:59;;;;;;;0.20;0.20;;;;;;;22.92;12.13;100288.81;5057283;28;20112;-74
2022/03/06 01:04:28;;;;;;;0.20;0.20;;;;;;;23.00;11.96;100301.88;5057047;28;20056;-74
2022/03/06 01:06:53;;;;;;;0.20;0.20;;;;;;;22.99;12.17;100308.44;5057030;28;20071;-75
2022/03/06 01:09:18;;;;;;;0.28;0.28;;;;;;;23.01;11.96;100300.00;5057786;28;20033;-75
2022/03/06 01:11:44;;;;;;;0.20;0.20;;;;;;;23.00;12.00;100290.97;5056723;28;20029;-74
2022/03/06 01:14:09;;;;;;;0.20;0.20;;;;;;;22.98;11.88;100287.72;5039228;28;20032;-74
2022/03/06 01:16:35;;;;;;;0.30;0.30;;;;;;;22.97;12.13;100271.63;5057001;28;20021;-74
2022/03/06 01:19:00;;;;;;;0.30;0.30;;;;;;;23.00;12.04;100274.63;5057630;28;20498;-74
2022/03/06 01:21:25;;;;;;;0.10;0.10;;;;;;;23.02;11.95;100266.97;5056526;28;20467;-74
2022/03/06 01:23:51;;;;;;;0.20;0.20;;;;;;;23.00;11.96;100269.16;5056429;28;20044;-74
2022/03/06 01:26:17;;;;;;;0.20;0.20;;;;;;;23.00;12.14;100269.16;5056473;28;20029;-75
2022/03/06 01:28:43;;;;;;;0.65;0.32;;;;;;;22.98;11.94;100274.09;5056411;28;20483;-74
2022/03/06 01:31:08;;;;;;;0.20;0.20;;;;;;;22.99;11.95;100267.56;5056296;28;20032;-75
2022/03/06 01:33:34;;;;;;;0.20;0.20;;;;;;;23.00;12.01;100271.91;5056623;28;20036;-75
2022/03/06 01:35:59;;;;;;;0.20;0.20;;;;;;;23.01;11.99;100270.00;5056528;28;20036;-75
2022/03/06 01:38:25;;;;;;;0.10;0.10;;;;;;;23.00;12.07;100265.63;5056509;28;20340;-75
2022/03/06 01:40:50;;;;;;;0.28;0.28;;;;;;;22.99;12.05;100259.38;5038714;28;20029;-73
2022/03/06 01:43:15;;;;;;;0.30;0.30;;;;;;;23.01;11.98;100262.66;5056066;28;20399;-75
2022/03/06 01:45:41;;;;;;;0.20;0.20;;;;;;;23.01;11.92;100262.66;5056452;28;20029;-75
2022/03/06 01:48:08;;;;;;;0.20;0.20;;;;;;;22.99;12.02;100250.38;5056302;28;20036;-74
2022/03/06 01:50:34;;;;;;;0.20;0.20;;;;;;;23.00;11.96;100262.91;5056006;28;20047;-74
2022/03/06 01:53:00;;;;;;;0.20;0.20;;;;;;;23.02;12.01;100258.00;5056560;28;20029;-75
2022/03/06 01:55:26;;;;;;;0.35;0.30;;;;;;;23.00;12.02;100247.38;5055053;28;20028;-74
2022/03/06 01:57:57;;;;;;;0.20;0.20;;;;;;;22.98;11.98;100244.09;5055838;28;20057;-74
2022/03/06 02:00:24;;;;;;;0.20;0.20;;;;;;;22.94;12.00;100237.59;5055970;28;20026;-74
2022/03/06 02:02:49;;;;;;;0.20;0.20;;;;;;;22.99;11.88;100229.41;5056003;28;20096;-74
2022/03/06 02:05:15;;;;;;;0.20;0.20;;;;;;;22.99;11.94;100245.75;5056126;28;20048;-76
2022/03/06 02:07:40;;;;;;;0.20;0.20;;;;;;;22.98;12.00;100238.66;5055909;28;20029;-75
2022/03/06 02:10:06;;;;;;;0.43;0.30;;;;;;;22.98;12.08;100235.94;5056026;28;20090;-74
2022/03/06 02:12:32;;;;;;;0.30;0.30;;;;;;;22.98;11.88;100237.84;5038519;28;20100;-74
2022/03/06 02:14:59;;;;;;;0.20;0.20;;;;;;;22.99;12.13;100232.13;5055821;28;20045;-74
2022/03/06 02:17:25;;;;;;;0.20;0.20;;;;;;;23.00;12.07;100236.47;5055346;28;20056;-74
2022/03/06 02:19:52;;;;;;;0.30;0.30;;;;;;;23.00;12.02;100230.22;5055388;28;20029;-74
2022/03/06 02:22:18;;;;;;;0.20;0.20;;;;;;;22.98;12.09;100240.56;5055577;28;20029;-74
2022/03/06 02:24:43;;;;;;;0.20;0.20;;;;;;;22.98;12.11;100244.09;5055147;28;20049;-74
2022/03/06 02:27:08;;;;;;;0.30;0.30;;;;;;;22.98;12.07;100238.66;5055610;28;20367;-74
2022/03/06 02:29:34;;;;;;;0.20;0.20;;;;;;;22.99;12.08;100245.75;5055413;28;20029;-75
2022/03/06 02:32:00;;;;;;;0.20;0.20;;;;;;;23.00;12.09;100244.63;5055537;28;20013;-73
2022/03/06 02:34:26;;;;;;;0.20;0.20;;;;;;;22.95;12.16;100239.19;5037806;28;20082;-74
2022/03/06 02:36:51;;;;;;;0.30;0.30;;;;;;;22.97;12.08;100238.94;5037660;28;20402;-73
2022/03/06 02:39:16;;;;;;;0.20;0.20;;;;;;;22.99;12.06;100244.91;5055361;28;20036;-75
2022/03/06 02:41:42;;;;;;;0.20;0.20;;;;;;;23.00;11.93;100257.47;5037520;28;20452;-74
2022/03/06 02:44:07;;;;;;;0.20;0.20;;;;;;;22.99;12.15;100250.38;5055228;28;20025;-75
2022/03/06 02:46:33;;;;;;;0.20;0.20;;;;;;;23.00;12.13;100247.38;5054833;28;20395;-74
2022/03/06 02:48:58;;;;;;;0.20;0.20;;;;;;;23.00;12.15;100252.81;5054897;28;20048;-74
2022/03/06 02:51:23;;;;;;;0.30;0.30;;;;;;;22.95;12.32;100244.66;5055210;28;20024;-74
2022/03/06 02:53:49;;;;;;;0.20;0.20;;;;;;;22.99;12.09;100245.75;5055159;28;20075;-74
2022/03/06 02:56:14;;;;;;;0.30;0.30;;;;;;;22.95;11.99;100247.38;5055024;28;20474;-74
2022/03/06 02:58:40;;;;;;;0.20;0.20;;;;;;;22.98;12.08;100246.84;5055013;28;20029;-74
2022/03/06 03:01:05;;;;;;;0.28;0.28;;;;;;;22.96;12.05;100240.84;5054993;28;20017;-75
2022/03/06 03:03:39;;;;;;;0.30;0.28;;;;;;;23.00;12.35;100244.63;5021100;28;20029;-75
2022/03/06 03:06:06;;;;;;;0.20;0.20;;;;;;;23.01;12.04;100235.38;5054453;28;20485;-74
2022/03/06 03:08:32;;;;;;;0.20;0.20;;;;;;;22.98;12.02;100238.66;5054087;28;20462;-74
2022/03/06 03:10:57;;;;;;;0.20;0.20;;;;;;;22.98;12.14;100232.41;5037048;28;20032;-74
2022/03/06 03:13:22;;;;;;;0.10;0.10;;;;;;;22.95;12.12;100236.47;5054668;28;20025;-75
2022/03/06 03:15:48;;;;;;;0.20;0.20;;;;;;;22.97;12.09;100242.47;5054348;28;20091;-74
2022/03/06 03:18:13;;;;;;;0.20;0.20;;;;;;;23.00;12.06;100241.91;5054612;28;20029;-74
2022/03/06 03:20:38;;;;;;;0.10;0.10;;;;;;;22.99;12.25;100236.75;5054578;28;20029;-74
2022/03/06 03:23:04;;;;;;;0.20;0.20;;;;;;;23.00;12.11;100236.47;5054121;28;20545;-74
2022/03/06 03:25:29;;;;;;;0.20;0.20;;;;;;;22.99;12.02;100231.28;5054429;28;20021;-75
2022/03/06 03:27:55;;;;;;;0.20;0.20;;;;;;;22.98;12.06;100222.31;5054733;28;20033;-74
2022/03/06 03:30:20;;;;;;;0.25;0.25;;;;;;;22.95;12.27;100217.41;5054402;28;20021;-75
2022/03/06 03:32:47;;;;;;;0.30;0.30;;;;;;;22.95;12.09;100222.84;5053980;28;20503;-75
2022/03/06 03:35:12;;;;;;;0.30;0.30;;;;;;;22.98;12.15;100225.03;5054236;28;20051;-74
2022/03/06 03:37:37;;;;;;;0.30;0.30;;;;;;;22.95;12.14;100222.84;5054258;28;20039;-75
2022/03/06 03:40:04;;;;;;;0.20;0.20;;;;;;;22.94;12.14;100221.22;5054903;28;20335;-74
2022/03/06 03:42:29;;;;;;;0.30;0.30;;;;;;;22.98;12.19;100233.19;5054062;28;20032;-74
2022/03/06 03:44:54;;;;;;;0.15;0.15;;;;;;;22.98;12.14;100226.94;5053983;28;20041;-75
2022/03/06 03:47:20;;;;;;;0.20;0.20;;;;;;;22.95;12.14;100216.59;5054054;28;20024;-75
2022/03/06 03:49:45;;;;;;;0.30;0.20;;;;;;;22.98;12.13;100227.75;5054050;28;20021;-74
2022/03/06 03:52:11;;;;;;;0.20;0.20;;;;;;;22.98;12.07;100219.56;5054016;28;20029;-75
2022/03/06 03:54:36;;;;;;;0.20;0.20;;;;;;;22.98;12.19;100225.03;5054235;28;20021;-75
2022/03/06 03:57:02;;;;;;;0.20;0.20;;;;;;;22.97;12.18;100226.09;5053885;28;20357;-75
2022/03/06 03:59:27;;;;;;;0.20;0.20;;;;;;;22.98;11.98;100216.84;5053914;28;20021;-74
2022/03/06 04:01:53;;;;;;;0.30;0.30;;;;;;;22.98;12.13;100221.50;5053519;28;20383;-74
2022/03/06 04:04:18;;;;;;;0.28;0.28;;;;;;;22.96;12.28;100216.31;5053464;28;20033;-74
2022/03/06 04:06:44;;;;;;;0.20;0.20;;;;;;;22.95;12.12;100214.66;5053669;28;20031;-75
2022/03/06 04:09:09;;;;;;;0.20;0.20;;;;;;;22.94;12.01;100221.22;5053478;28;20025;-75
2022/03/06 04:11:34;;;;;;;0.20;0.20;;;;;;;22.98;12.00;100226.94;5053656;28;20032;-74
2022/03/06 04:14:00;;;;;;;0.20;0.20;;;;;;;22.97;12.13;100226.09;5053628;28;20028;-74
2022/03/06 04:16:25;;;;;;;0.30;0.30;;;;;;;22.94;12.05;100225.84;5053266;28;20545;-74
2022/03/06 04:18:50;;;;;;;0.20;0.20;;;;;;;22.94;12.09;100218.50;5052822;28;20043;-74
2022/03/06 04:21:16;;;;;;;0.20;0.20;;;;;;;22.96;11.98;100226.41;5053521;28;20021;-74
2022/03/06 04:23:41;;;;;;;0.20;0.20;;;;;;;22.95;12.13;100225.56;5053024;28;20546;-74
2022/03/06 04:26:07;;;;;;;0.68;0.22;;;;;;;22.96;12.12;100218.22;5053431;28;20044;-75
2022/03/06 04:28:32;;;;;;;0.30;0.30;;;;;;;22.95;12.10;100222.84;5053823;28;20044;-74
2022/03/06 04:30:57;;;;;;;0.20;0.20;;;;;;;22.95;12.01;100220.13;5053539;28;20025;-74
2022/03/06 04:33:23;;;;;;;0.20;0.20;;;;;;;22.95;12.06;100216.59;5053141;28;20395;-75
2022/03/06 04:35:48;;;;;;;0.20;0.20;;;;;;;22.95;11.94;100217.41;5053365;28;20017;-74
2022/03/06 04:38:13;;;;;;;0.20;0.20;;;;;;;22.93;12.03;100219.59;5053417;28;20033;-73
2022/03/06 04:40:39;;;;;;;0.20;0.20;;;;;;;22.95;11.91;100222.84;5053462;28;20087;-74
2022/03/06 04:43:04;;;;;;;0.20;0.20;;;;;;;22.94;11.99;100232.13;5053448;28;20021;-74
2022/03/06 04:45:30;;;;;;;0.20;0.20;;;;;;;22.94;11.98;100229.41;5053870;28;20086;-74
2022/03/06 04:47:55;;;;;;;0.20;0.20;;;;;;;22.94;12.03;100232.13;5053779;28;20021;-74
2022/03/06 04:50:21;;;;;;;0.20;0.20;;;;;;;22.92;12.04;100233.47;5057065;28;20029;-74
2022/03/06 04:52:46;;;;;;;0.20;0.20;;;;;;;22.87;11.84;100226.16;5056700;28;20112;-74
2022/03/06 04:55:11;;;;;;;0.30;0.30;;;;;;;22.92;11.93;100234.31;5056825;28;20029;-75
2022/03/06 04:57:37;;;;;;;0.10;0.10;;;;;;;22.92;11.88;100228.03;5056755;28;20033;-74
2022/03/06 05:00:04;;;;;;;0.30;0.30;;;;;;;22.92;11.97;100237.03;5056779;28;20029;-74
2022/03/06 05:02:29;;;;;;;0.20;0.20;;;;;;;22.93;12.05;100230.47;5057946;28;20059;-75
2022/03/06 05:04:55;;;;;;;0.20;0.20;;;;;;;22.93;11.87;100225.03;5058251;28;20025;-75
2022/03/06 05:07:20;;;;;;;0.30;0.30;;;;;;;22.94;11.86;100236.75;5061653;28;20463;-74
2022/03/06 05:09:46;;;;;;;0.20;0.20;;;;;;;22.93;11.88;100235.13;5042779;28;20513;-74
2022/03/06 05:12:11;;;;;;;0.20;0.20;;;;;;;22.93;11.87;100235.94;5041464;28;20036;-74
2022/03/06 05:14:37;;;;;;;0.20;0.20;;;;;;;22.93;11.87;100235.94;5059307;28;20029;-75
2022/03/06 05:17:03;;;;;;;0.20;0.20;;;;;;;22.92;12.07;100225.31;5059514;28;20052;-75
2022/03/06 05:19:28;;;;;;;0.20;0.20;;;;;;;22.95;11.94;100239.19;5059678;28;20029;-74
2022/03/06 05:21:54;;;;;;;0.22;0.22;;;;;;;22.94;11.94;100236.75;5063588;28;20033;-74
2022/03/06 05:24:19;;;;;;;0.30;0.30;;;;;;;22.93;11.94;100229.69;5052612;28;20052;-74
2022/03/06 05:26:44;;;;;;;0.40;0.22;;;;;;;22.93;11.66;100235.13;5052956;28;20033;-74
2022/03/06 05:29:10;;;;;;;0.15;0.15;;;;;;;22.92;11.94;100220.69;5052638;28;20472;-74
2022/03/06 05:31:35;;;;;;;0.17;0.17;;;;;;;22.92;11.86;100228.88;5055882;28;20033;-74
2022/03/06 05:34:00;;;;;;;0.20;0.20;;;;;;;22.92;11.96;100230.75;5056662;28;20036;-73
2022/03/06 05:36:26;;;;;;;0.22;0.20;;;;;;;22.93;11.99;100235.94;5056230;28;20017;-74
2022/03/06 05:38:52;;;;;;;0.20;0.20;;;;;;;22.85;11.86;100222.84;5056649;28;20128;-75
2022/03/06 05:41:17;;;;;;;0.20;0.20;;;;;;;22.92;11.97;100228.88;5056188;28;20048;-75
2022/03/06 05:43:42;;;;;;;0.15;0.15;;;;;;;22.94;11.89;100234.84;5056159;28;20048;-74
2022/03/06 05:46:08;;;;;;;0.20;0.20;;;;;;;22.91;11.95;100227.22;5056143;28;20028;-74
2022/03/06 05:48:33;;;;;;;0.17;0.17;;;;;;;22.92;11.76;100234.31;5056294;28;20036;-74
2022/03/06 05:50:59;;;;;;;0.20;0.20;;;;;;;22.92;11.92;100231.59;5056424;28;20021;-74
2022/03/06 05:53:24;;;;;;;0.20;0.20;;;;;;;22.91;11.94;100226.41;5056078;28;20487;-74
2022/03/06 05:55:49;;;;;;;0.20;0.20;;;;;;;22.90;12.00;100219.31;5056107;28;20029;-73
2022/03/06 05:58:15;;;;;;;0.20;0.20;;;;;;;22.92;12.03;100219.84;5038360;28;20029;-74
2022/03/06 06:00:40;;;;;;;0.30;0.28;;;;;;;22.93;12.01;100219.59;5056906;28;20029;-74
2022/03/06 06:03:05;;;;;;;0.20;0.20;;;;;;;22.92;12.08;100211.69;5056084;28;20025;-75
2022/03/06 06:05:31;;;;;;;0.13;0.13;;;;;;;22.91;12.02;100216.31;5055724;28;20495;-74
2022/03/06 06:07:56;;;;;;;0.20;0.20;;;;;;;22.90;12.02;100214.69;5038042;28;20079;-74
2022/03/06 06:10:22;;;;;;;0.20;0.20;;;;;;;22.91;12.03;100210.88;5056030;28;20063;-74
2022/03/06 06:12:47;;;;;;;0.10;0.10;;;;;;;22.93;11.88;100214.13;5055577;28;20048;-74
2022/03/06 06:15:13;;;;;;;0.20;0.20;;;;;;;22.91;12.00;100210.88;5055532;28;20043;-74
2022/03/06 06:17:38;;;;;;;0.20;0.20;;;;;;;22.92;11.97;100212.53;5055521;28;20029;-74
2022/03/06 06:20:04;;;;;;;0.10;0.10;;;;;;;22.91;12.08;100210.88;5055799;28;20024;-75
2022/03/06 06:22:31;;;;;;;0.30;0.30;;;;;;;22.93;12.15;100222.31;5055086;28;20056;-74
2022/03/06 06:24:56;;;;;;;0.28;0.28;;;;;;;22.90;12.08;100209.22;5055302;28;20482;-74
2022/03/06 06:27:22;;;;;;;0.10;0.10;;;;;;;22.94;12.08;100209.50;5055137;28;20033;-74
2022/03/06 06:29:47;;;;;;;0.10;0.10;;;;;;;22.95;12.14;100211.13;5055613;28;20033;-74
2022/03/06 06:32:13;;;;;;;0.20;0.20;;;;;;;22.94;12.19;100198.59;5055208;28;20037;-75
2022/03/06 06:34:39;;;;;;;0.20;0.20;;;;;;;22.93;12.19;100197.78;5055175;28;20029;-74
2022/03/06 06:37:04;;;;;;;0.15;0.15;;;;;;;22.99;12.07;100199.44;5055499;28;20031;-75
2022/03/06 06:39:30;;;;;;;0.20;0.20;;;;;;;22.98;12.27;100200.50;5055535;28;20075;-74
2022/03/06 06:41:55;;;;;;;0.20;0.20;;;;;;;22.91;12.17;100191.00;5054319;28;20079;-74
2022/03/06 06:44:23;;;;;;;0.28;0.20;;;;;;;22.96;12.23;100202.69;5055464;28;20025;-75
2022/03/06 06:46:49;;;;;;;0.25;0.20;;;;;;;22.99;12.29;100207.59;5055280;28;20033;-74
2022/03/06 06:49:14;;;;;;;0.20;0.20;;;;;;;23.00;12.31;100197.50;5054946;28;20355;-74
2022/03/06 06:51:40;;;;;;;0.20;0.20;;;;;;;23.01;12.15;100193.69;5055073;28;20029;-74
2022/03/06 06:54:05;;;;;;;0.20;0.20;;;;;;;22.99;12.32;100199.44;5054928;28;20021;-75
2022/03/06 06:56:31;;;;;;;0.10;0.10;;;;;;;23.00;12.22;100201.03;5055400;28;20033;-74
2022/03/06 06:58:57;;;;;;;0.20;0.20;;;;;;;23.01;12.59;100189.06;5054924;28;20131;-75
2022/03/06 07:01:22;;;;;;;0.20;0.20;;;;;;;22.98;12.32;100189.59;5054724;28;20032;-74
2022/03/06 07:03:47;;;;;;;0.20;0.20;;;;;;;23.00;12.50;100192.88;5054685;28;20029;-74
2022/03/06 07:06:13;;;;;;;0.20;0.20;;;;;;;23.00;12.42;100187.41;5037514;28;20079;-75
2022/03/06 07:08:38;;;;;;;0.82;0.20;;;;;;;23.05;12.39;100195.59;5054533;28;20467;-74
2022/03/06 07:11:07;;;;;;;0.20;0.20;;;;;;;23.04;12.51;100199.41;5054518;28;20021;-74
2022/03/06 07:13:32;;;;;;;0.10;0.10;;;;;;;23.03;12.61;100197.78;5054616;28;20472;-75
2022/03/06 07:15:58;;;;;;;0.10;0.10;;;;;;;23.04;12.59;100193.97;5054805;28;20024;-74
2022/03/06 07:18:23;;;;;;;0.13;0.13;;;;;;;23.04;12.53;100188.50;5054826;28;20029;-75
2022/03/06 07:20:49;;;;;;;0.20;0.20;;;;;;;23.00;12.73;100176.50;5054767;28;20027;-74
2022/03/06 07:23:15;;;;;;;0.20;0.20;;;;;;;23.05;12.67;100184.72;5054243;28;20510;-75
2022/03/06 07:25:40;;;;;;;0.10;0.10;;;;;;;23.05;12.65;100179.25;5054435;28;20388;-74
2022/03/06 07:28:06;;;;;;;0.15;0.15;;;;;;;23.05;12.78;100176.53;5054776;28;20033;-74
2022/03/06 07:30:31;;;;;;;0.20;0.20;;;;;;;23.09;12.65;100176.00;5054111;28;20029;-75
2022/03/06 07:32:57;;;;;;;0.32;0.30;;;;;;;23.09;12.71;100173.25;5054035;28;20032;-74
2022/03/06 07:35:22;;;;;;;0.20;0.20;;;;;;;23.10;12.92;100180.34;5054344;28;20029;-74
2022/03/06 07:37:48;;;;;;;0.57;0.20;;;;;;;23.06;12.77;100175.44;5054310;28;20021;-75
2022/03/06 07:40:15;;;;;;;0.30;0.20;;;;;;;23.10;12.79;100180.34;5054334;28;20056;-74
2022/03/06 07:42:40;;;;;;;0.20;0.20;;;;;;;23.13;12.83;100179.78;5054224;28;20025;-74
2022/03/06 07:45:06;;;;;;;0.30;0.30;;;;;;;23.13;12.79;100188.78;5054977;28;20083;-74
2022/03/06 07:47:32;;;;;;;0.20;0.20;;;;;;;23.15;12.88;100186.59;5054042;28;20021;-75
2022/03/06 07:49:57;;;;;;;0.20;0.20;;;;;;;23.14;12.85;100192.34;5054133;28;20051;-74
2022/03/06 07:52:22;;;;;;;0.22;0.22;;;;;;;23.16;12.76;100180.06;5053832;28;20041;-74
2022/03/06 07:54:48;;;;;;;0.20;0.20;;;;;;;23.17;12.88;100186.34;5053898;28;20029;-74
2022/03/06 07:57:13;;;;;;;0.22;0.20;;;;;;;23.17;12.98;100180.88;5053760;28;20055;-74
2022/03/06 07:59:39;;;;;;;0.30;0.30;;;;;;;23.18;12.91;100185.22;5053794;28;20090;-73
2022/03/06 08:02:04;;;;;;;0.28;0.28;;;;;;;23.15;12.79;100183.88;5053909;28;20104;-73
2022/03/06 08:04:29;;;;;;;0.15;0.15;;;;;;;23.18;12.72;100193.41;5053573;28;20017;-74
2022/03/06 08:06:55;;;;;;;0.10;0.10;;;;;;;23.19;12.90;100190.41;5053762;28;20491;-75
2022/03/06 08:09:20;;;;;;;0.20;0.20;;;;;;;23.19;12.90;100193.13;5053375;28;20031;-74
2022/03/06 08:11:46;;;;;;;0.28;0.13;;;;;;;23.22;12.81;100194.50;5053769;28;20025;-74
2022/03/06 08:14:11;;;;;;;0.65;0.25;;;;;;;23.23;12.91;100185.22;5035607;28;20171;-74
2022/03/06 08:16:37;;;;;;;0.20;0.20;;;;;;;23.23;12.97;100183.31;5053676;28;20025;-74
2022/03/06 08:19:03;;;;;;;0.22;0.20;;;;;;;23.23;13.05;100177.88;5053613;28;20025;-74
2022/03/06 08:21:28;;;;;;;0.30;0.30;;;;;;;23.24;13.04;100178.66;5053599;28;20036;-74
2022/03/06 08:23:54;;;;;;;0.35;0.13;;;;;;;23.24;12.95;100170.50;5053224;28;20487;-74
2022/03/06 08:26:19;;;;;;;0.10;0.10;;;;;;;23.27;13.08;100172.69;5053365;28;20487;-74
2022/03/06 08:28:45;;;;;;;0.20;0.20;;;;;;;23.25;13.05;100172.94;5053502;28;20025;-73
2022/03/06 08:31:10;;;;;;;1.38;0.20;;;;;;;23.29;13.10;100172.41;5053117;28;20029;-74
2022/03/06 08:33:36;;;;;;;0.20;0.20;;;;;;;23.31;12.97;100165.56;5053430;28;20028;-75
2022/03/06 08:36:01;;;;;;;0.30;0.10;;;;;;;23.33;13.01;100177.00;5053472;28;20459;-75
2022/03/06 08:38:27;;;;;;;0.17;0.17;;;;;;;23.36;13.13;100168.28;5053412;28;20474;-74
2022/03/06 08:40:53;;;;;;;0.30;0.28;;;;;;;23.33;12.92;100173.47;5053430;28;20028;-74
2022/03/06 08:43:19;;;;;;;0.15;0.15;;;;;;;23.33;13.07;100166.09;5053413;28;20025;-74
2022/03/06 08:45:44;;;;;;;0.30;0.30;;;;;;;23.37;13.00;100166.34;5053416;28;20124;-73
2022/03/06 08:48:09;;;;;;;0.20;0.20;;;;;;;23.37;13.21;100164.47;5053329;28;20025;-75
2022/03/06 08:50:35;;;;;;;0.20;0.20;;;;;;;23.38;13.12;100157.91;5053343;28;20348;-74
2022/03/06 08:53:00;;;;;;;0.22;0.20;;;;;;;23.40;13.00;100157.63;5053038;28;20029;-74
2022/03/06 08:55:26;;;;;;;0.20;0.20;;;;;;;23.40;13.17;100152.16;5053370;28;20028;-75
2022/03/06 08:57:51;;;;;;;0.20;0.20;;;;;;;23.43;13.13;100160.59;5053227;28;20100;-74
2022/03/06 09:00:17;;;;;;;0.20;0.20;;;;;;;23.42;13.14;100155.41;5052782;28;20425;-74
2022/03/06 09:02:43;;;;;;;0.20;0.20;;;;;;;23.41;13.17;100154.63;5052900;28;20025;-74
2022/03/06 09:05:09;;;;;;;0.20;0.20;;;;;;;23.41;13.00;100154.63;5053906;28;20120;-73
2022/03/06 09:07:34;;;;;;;0.20;0.20;;;;;;;23.44;13.03;100156.78;5057579;28;20051;-75
2022/03/06 09:09:59;;;;;;;0.10;0.10;;;;;;;23.42;13.29;100145.34;5057178;28;20025;-74
2022/03/06 09:12:26;;;;;;;0.10;0.10;;;;;;;23.47;13.20;100147.22;5056746;28;20383;-74
2022/03/06 09:14:55;;;;;;;0.15;0.15;;;;;;;23.46;13.12;100139.31;5057546;28;20025;-74
2022/03/06 09:17:20;;;;;;;0.40;0.30;;;;;;;23.48;13.24;100145.34;5056952;28;20052;-74
2022/03/06 09:19:46;;;;;;;0.20;0.20;;;;;;;23.47;12.94;100140.97;5056617;28;20082;-74
2022/03/06 09:22:11;;;;;;;0.17;0.17;;;;;;;23.51;13.27;100136.56;5056904;28;20025;-75
2022/03/06 09:24:36;;;;;;;0.20;0.20;;;;;;;23.51;13.17;100137.41;5056460;28;20045;-75
2022/03/06 09:27:02;;;;;;;0.10;0.10;;;;;;;23.51;13.20;100133.84;5056819;28;20037;-74
2022/03/06 09:29:27;;;;;;;0.20;0.20;;;;;;;23.54;13.08;100138.75;5056409;28;20028;-74
2022/03/06 09:31:53;;;;;;;0.25;0.20;;;;;;;23.53;13.13;100134.41;5056466;28;20025;-75
2022/03/06 09:34:18;;;;;;;0.20;0.20;;;;;;;23.54;13.09;100136.00;5056457;28;20029;-74
2022/03/06 09:36:44;;;;;;;0.20;0.20;;;;;;;23.54;13.30;100133.28;5056219;28;20029;-75
2022/03/06 09:39:10;;;;;;;0.10;0.10;;;;;;;23.52;13.36;100139.00;5056198;28;20025;-74
2022/03/06 09:41:38;;;;;;;0.20;0.20;;;;;;;23.53;13.30;100145.31;5039031;28;20033;-75
2022/03/06 09:44:03;;;;;;;0.20;0.20;;;;;;;23.54;13.24;100136.00;5038760;28;20385;-73
2022/03/06 09:46:29;;;;;;;0.10;0.10;;;;;;;23.57;13.36;100138.19;5039127;28;20021;-74
2022/03/06 09:48:54;;;;;;;0.30;0.10;;;;;;;23.58;13.21;100137.09;5056321;28;20089;-74
2022/03/06 09:51:20;;;;;;;0.10;0.10;;;;;;;23.58;13.34;100143.38;5056841;28;20029;-74
2022/03/06 09:53:45;;;;;;;0.20;0.20;;;;;;;23.58;13.32;100139.81;5056145;28;20345;-75
2022/03/06 09:56:12;;;;;;;0.20;0.20;;;;;;;23.56;13.11;100139.28;5056229;28;20055;-75
2022/03/06 09:58:37;;;;;;;0.20;0.20;;;;;;;23.58;13.32;100145.28;5056002;28;20471;-74
2022/03/06 10:01:02;;;;;;;0.10;0.10;;;;;;;23.57;13.13;100124.53;5056176;28;20043;-74
2022/03/06 10:03:32;;;;;;;0.10;0.10;;;;;;;23.58;13.14;100129.72;5055727;28;20021;-75
2022/03/06 10:05:57;;;;;;;0.20;0.20;;;;;;;23.58;13.10;100126.19;5022183;28;20048;-74
2022/03/06 10:08:27;;;;;;;0.10;0.10;;;;;;;23.57;13.33;100133.53;5055887;28;20487;-74
2022/03/06 10:10:59;;;;;;;0.38;0.20;;;;;;;23.57;13.39;100127.28;5056040;28;20371;-75
2022/03/06 10:13:43;;;;;;;0.20;0.20;;;;;;;23.53;13.24;100107.94;5055938;28;20025;-75
2022/03/06 10:16:18;;;;;;;0.20;0.20;;;;;;;23.64;13.38;100108.69;5055111;28;20475;-74
2022/03/06 10:18:55;;;;;;;0.20;0.20;;;;;;;23.65;13.18;100113.06;5055248;28;20349;-73
2022/03/06 10:21:29;;;;;;;0.20;0.20;;;;;;;23.61;13.29;100109.25;5055893;28;20117;-75
2022/03/06 10:23:59;;;;;;;0.15;0.15;;;;;;;23.60;13.48;100113.09;5055433;28;20068;-73
2022/03/06 10:26:25;;;;;;;0.10;0.10;;;;;;;23.58;13.28;100116.09;5055325;28;20559;-75
2022/03/06 10:28:53;;;;;;;0.75;0.10;;;;;;;23.56;13.49;100114.72;5055244;28;20061;-75
2022/03/06 10:31:19;;;;;;;0.20;0.20;;;;;;;23.55;13.44;100119.38;5055904;28;20041;-74
2022/03/06 10:34:05;;;;;;;0.10;0.10;;;;;;;23.53;13.38;100112.59;5055636;28;20025;-75
2022/03/06 10:36:35;;;;;;;0.15;0.15;;;;;;;23.55;13.18;100115.84;5055204;28;20021;-75
2022/03/06 10:39:02;;;;;;;0.20;0.20;;;;;;;23.54;13.52;100111.47;5055826;28;20036;-75
2022/03/06 10:41:35;;;;;;;0.10;0.10;;;;;;;23.51;13.53;100101.09;5055150;28;20036;-75
2022/03/06 10:44:01;;;;;;;0.20;0.20;;;;;;;23.53;13.26;100101.66;5055462;28;20033;-75
2022/03/06 10:46:27;;;;;;;0.15;0.10;;;;;;;23.49;13.44;100093.25;5054990;28;20387;-74
2022/03/06 10:48:56;;;;;;;0.10;0.10;;;;;;;23.47;13.27;100086.41;5055233;28;20028;-74
2022/03/06 10:51:21;;;;;;;0.20;0.20;;;;;;;23.51;13.44;100092.94;5054899;28;20459;-74
2022/03/06 10:53:54;;;;;;;0.10;0.10;;;;;;;23.50;13.47;100102.22;5054949;28;20025;-73
2022/03/06 10:56:20;;;;;;;0.10;0.10;;;;;;;23.49;13.38;100095.13;5055136;28;20108;-75
2022/03/06 10:58:46;;;;;;;0.13;0.13;;;;;;;23.46;13.54;100091.06;5055003;28;20043;-75
2022/03/06 11:01:11;;;;;;;0.10;0.10;;;;;;;23.47;13.52;100089.16;5055117;28;20386;-74
2022/03/06 11:03:37;;;;;;;0.35;0.22;;;;;;;23.47;13.31;100086.41;5055075;28;20029;-74
2022/03/06 11:06:03;;;;;;;0.20;0.13;;;;;;;23.49;13.40;100073.31;5054953;28;20388;-74
2022/03/06 11:08:29;;;;;;;0.10;0.10;;;;;;;23.47;13.41;100072.78;5054853;28;20104;-75
2022/03/06 11:10:54;;;;;;;0.60;0.20;;;;;;;23.44;13.27;100064.06;5054916;28;20021;-73
2022/03/06 11:13:21;;;;;;;0.10;0.10;;;;;;;23.44;13.38;100055.88;5054572;28;20032;-75
2022/03/06 11:15:46;;;;;;;0.20;0.20;;;;;;;23.44;13.33;100058.63;5020161;28;20028;-74
2022/03/06 11:18:13;;;;;;;0.10;0.10;;;;;;;23.46;13.37;100052.88;5036836;28;20032;-74